sensor_id;sensor_type;location;lat;lon;timestamp;temperature;humidity
11122;DHT22;5615;49.304;10.576;2022-09-09T00:00:51;11.80;99.90
11122;DHT22;5615;49.304;10.576;2022-09-09T00:03:24;11.80;99.90
11122;DHT22;5615;49.304;10.576;2022-09-09T00:05:59;11.80;99.90
11122;DHT22;5615;49.304;10.576;2022-09-09T00:08:36;11.80;99.90
11122;DHT22;5615;49.304;10.576;2022-09-09T00:11:07;11.80;99.90
11122;DHT22;5615;49.304;10.576;2022-09-09T00:13:39;11.80;99.90
11122;DHT22;5615;49.304;10.576;2022-09-09T00:16:14;11.80;99.90
11122;DHT22;5615;49.304;10.576;2022-09-09T00:18:52;11.80;99.90
11122;DHT22;5615;49.304;10.576;2022-09-09T00:21:27;11.70;99.90
11122;DHT22;5615;49.304;10.576;2022-09-09T00:23:58;11.70;99.90
11122;DHT22;5615;49.304;10.576;2022-09-09T00:26:34;11.70;99.90
11122;DHT22;5615;49.304;10.576;2022-09-09T00:29:14;11.70;99.90
11122;DHT22;5615;49.304;10.576;2022-09-09T00:31:45;11.60;99.90
11122;DHT22;5615;49.304;10.576;2022-09-09T00:34:14;11.70;99.90
11122;DHT22;5615;49.304;10.576;2022-09-09T00:36:43;11.70;99.90
11122;DHT22;5615;49.304;10.576;2022-09-09T00:39:23;11.70;99.90
11122;DHT22;5615;49.304;10.576;2022-09-09T00:42:04;11.60;99.90
11122;DHT22;5615;49.304;10.576;2022-09-09T00:44:37;11.60;99.90
11122;DHT22;5615;49.304;10.576;2022-09-09T00:47:13;11.50;99.90
11122;DHT22;5615;49.304;10.576;2022-09-09T00:49:54;11.50;99.90
11122;DHT22;5615;49.304;10.576;2022-09-09T00:52:31;11.50;99.90
11122;DHT22;5615;49.304;10.576;2022-09-09T00:55:07;11.50;99.90
11122;DHT22;5615;49.304;10.576;2022-09-09T00:57:38;11.60;99.90
11122;DHT22;5615;49.304;10.576;2022-09-09T01:00:19;11.60;99.90
11122;DHT22;5615;49.304;10.576;2022-09-09T01:05:41;11.50;99.90
11122;DHT22;5615;49.304;10.576;2022-09-09T01:08:24;11.50;99.90
11122;DHT22;5615;49.304;10.576;2022-09-09T01:10:56;11.40;99.90
11122;DHT22;5615;49.304;10.576;2022-09-09T01:13:26;11.40;99.90
11122;DHT22;5615;49.304;10.576;2022-09-09T01:15:57;11.40;99.90
11122;DHT22;5615;49.304;10.576;2022-09-09T01:18:28;11.40;99.90
11122;DHT22;5615;49.304;10.576;2022-09-09T01:21:02;11.40;99.90
11122;DHT22;5615;49.304;10.576;2022-09-09T01:23:47;11.40;99.90
11122;DHT22;5615;49.304;10.576;2022-09-09T01:26:27;11.40;99.90
11122;DHT22;5615;49.304;10.576;2022-09-09T01:28:54;11.50;99.90
11122;DHT22;5615;49.304;10.576;2022-09-09T01:31:23;11.50;99.90
11122;DHT22;5615;49.304;10.576;2022-09-09T01:33:52;11.50;99.90
11122;DHT22;5615;49.304;10.576;2022-09-09T01:36:24;11.50;99.90
11122;DHT22;5615;49.304;10.576;2022-09-09T01:38:52;11.50;99.90
11122;DHT22;5615;49.304;10.576;2022-09-09T01:41:19;11.50;99.90
11122;DHT22;5615;49.304;10.576;2022-09-09T01:43:48;11.50;99.90
11122;DHT22;5615;49.304;10.576;2022-09-09T01:46:17;11.50;99.90
11122;DHT22;5615;49.304;10.576;2022-09-09T01:48:47;11.70;99.90
11122;DHT22;5615;49.304;10.576;2022-09-09T01:51:14;11.70;99.90
11122;DHT22;5615;49.304;10.576;2022-09-09T01:53:41;11.60;99.90
11122;DHT22;5615;49.304;10.576;2022-09-09T01:56:17;11.70;99.90
11122;DHT22;5615;49.304;10.576;2022-09-09T01:59:04;11.60;99.90
11122;DHT22;5615;49.304;10.576;2022-09-09T02:01:41;11.70;99.90
11122;DHT22;5615;49.304;10.576;2022-09-09T02:04:18;11.70;99.90
11122;DHT22;5615;49.304;10.576;2022-09-09T02:06:49;11.70;99.90
11122;DHT22;5615;49.304;10.576;2022-09-09T02:09:22;11.70;99.90
11122;DHT22;5615;49.304;10.576;2022-09-09T02:11:51;11.80;99.90
11122;DHT22;5615;49.304;10.576;2022-09-09T02:14:24;11.80;99.90
11122;DHT22;5615;49.304;10.576;2022-09-09T02:16:56;11.80;99.90
11122;DHT22;5615;49.304;10.576;2022-09-09T02:19:26;11.80;99.90
11122;DHT22;5615;49.304;10.576;2022-09-09T02:21:55;11.80;99.90
11122;DHT22;5615;49.304;10.576;2022-09-09T02:24:25;11.80;99.90
11122;DHT22;5615;49.304;10.576;2022-09-09T02:26:54;11.90;99.90
11122;DHT22;5615;49.304;10.576;2022-09-09T02:29:26;11.80;99.90
11122;DHT22;5615;49.304;10.576;2022-09-09T02:31:55;11.90;99.90
11122;DHT22;5615;49.304;10.576;2022-09-09T02:34:25;12.00;99.90
11122;DHT22;5615;49.304;10.576;2022-09-09T02:36:54;12.20;99.90
11122;DHT22;5615;49.304;10.576;2022-09-09T02:39:21;12.20;99.90
11122;DHT22;5615;49.304;10.576;2022-09-09T02:41:48;12.30;99.90
11122;DHT22;5615;49.304;10.576;2022-09-09T02:44:16;12.20;99.90
11122;DHT22;5615;49.304;10.576;2022-09-09T02:46:56;12.20;99.90
11122;DHT22;5615;49.304;10.576;2022-09-09T02:49:35;12.20;99.90
11122;DHT22;5615;49.304;10.576;2022-09-09T02:52:07;12.30;99.90
11122;DHT22;5615;49.304;10.576;2022-09-09T02:54:36;12.30;99.90
11122;DHT22;5615;49.304;10.576;2022-09-09T02:57:08;12.40;99.90
11122;DHT22;5615;49.304;10.576;2022-09-09T02:59:37;12.50;99.90
11122;DHT22;5615;49.304;10.576;2022-09-09T03:02:05;12.50;99.90
11122;DHT22;5615;49.304;10.576;2022-09-09T03:04:32;12.40;99.90
11122;DHT22;5615;49.304;10.576;2022-09-09T03:06:59;12.50;99.90
11122;DHT22;5615;49.304;10.576;2022-09-09T03:09:25;12.60;99.90
11122;DHT22;5615;49.304;10.576;2022-09-09T03:11:52;12.60;99.90
11122;DHT22;5615;49.304;10.576;2022-09-09T03:14:20;12.60;99.90
11122;DHT22;5615;49.304;10.576;2022-09-09T03:16:50;12.60;99.90
11122;DHT22;5615;49.304;10.576;2022-09-09T03:19:18;12.60;99.90
11122;DHT22;5615;49.304;10.576;2022-09-09T03:21:45;12.50;99.90
11122;DHT22;5615;49.304;10.576;2022-09-09T03:24:12;12.50;99.90
11122;DHT22;5615;49.304;10.576;2022-09-09T03:26:39;12.50;99.90
11122;DHT22;5615;49.304;10.576;2022-09-09T03:29:06;12.50;99.90
11122;DHT22;5615;49.304;10.576;2022-09-09T03:31:33;12.40;99.90
11122;DHT22;5615;49.304;10.576;2022-09-09T03:34:01;12.50;99.90
11122;DHT22;5615;49.304;10.576;2022-09-09T03:36:30;12.40;99.90
11122;DHT22;5615;49.304;10.576;2022-09-09T03:38:56;12.30;99.90
11122;DHT22;5615;49.304;10.576;2022-09-09T03:41:24;12.30;99.90
11122;DHT22;5615;49.304;10.576;2022-09-09T03:43:52;12.20;99.90
11122;DHT22;5615;49.304;10.576;2022-09-09T03:46:19;12.20;99.90
11122;DHT22;5615;49.304;10.576;2022-09-09T03:48:45;12.10;99.90
11122;DHT22;5615;49.304;10.576;2022-09-09T03:51:12;12.10;99.90
11122;DHT22;5615;49.304;10.576;2022-09-09T03:53:41;12.20;99.90
11122;DHT22;5615;49.304;10.576;2022-09-09T03:56:09;12.20;99.90
11122;DHT22;5615;49.304;10.576;2022-09-09T03:58:36;12.10;99.90
11122;DHT22;5615;49.304;10.576;2022-09-09T04:01:05;12.10;99.90
11122;DHT22;5615;49.304;10.576;2022-09-09T04:03:34;11.90;99.90
11122;DHT22;5615;49.304;10.576;2022-09-09T04:06:03;11.80;99.90
11122;DHT22;5615;49.304;10.576;2022-09-09T04:08:31;11.90;99.90
11122;DHT22;5615;49.304;10.576;2022-09-09T04:11:00;11.90;99.90
11122;DHT22;5615;49.304;10.576;2022-09-09T04:13:27;11.80;99.90
11122;DHT22;5615;49.304;10.576;2022-09-09T04:15:55;11.70;99.90
11122;DHT22;5615;49.304;10.576;2022-09-09T04:18:23;11.70;99.90
11122;DHT22;5615;49.304;10.576;2022-09-09T04:20:51;11.70;99.90
11122;DHT22;5615;49.304;10.576;2022-09-09T04:23:18;11.70;99.90
11122;DHT22;5615;49.304;10.576;2022-09-09T04:25:46;11.60;99.90
11122;DHT22;5615;49.304;10.576;2022-09-09T04:28:15;11.60;99.90
11122;DHT22;5615;49.304;10.576;2022-09-09T04:30:42;11.60;99.90
11122;DHT22;5615;49.304;10.576;2022-09-09T04:33:09;11.50;99.90
11122;DHT22;5615;49.304;10.576;2022-09-09T04:35:36;11.60;99.90
11122;DHT22;5615;49.304;10.576;2022-09-09T04:38:04;11.60;99.90
11122;DHT22;5615;49.304;10.576;2022-09-09T04:40:32;11.60;99.90
11122;DHT22;5615;49.304;10.576;2022-09-09T04:42:59;11.70;99.90
11122;DHT22;5615;49.304;10.576;2022-09-09T04:45:27;11.70;99.90
11122;DHT22;5615;49.304;10.576;2022-09-09T04:47:54;11.70;99.90
11122;DHT22;5615;49.304;10.576;2022-09-09T04:50:21;11.70;99.90
11122;DHT22;5615;49.304;10.576;2022-09-09T04:52:48;11.60;99.90
11122;DHT22;5615;49.304;10.576;2022-09-09T04:55:14;11.60;99.90
11122;DHT22;5615;49.304;10.576;2022-09-09T04:57:41;11.60;99.90
11122;DHT22;5615;49.304;10.576;2022-09-09T05:00:09;11.80;99.90
11122;DHT22;5615;49.304;10.576;2022-09-09T05:02:38;11.90;99.90
11122;DHT22;5615;49.304;10.576;2022-09-09T05:05:07;11.90;99.90
11122;DHT22;5615;49.304;10.576;2022-09-09T05:07:34;12.00;99.90
11122;DHT22;5615;49.304;10.576;2022-09-09T05:10:01;12.10;99.90
11122;DHT22;5615;49.304;10.576;2022-09-09T05:12:31;12.20;99.90
11122;DHT22;5615;49.304;10.576;2022-09-09T05:14:58;12.30;99.90
11122;DHT22;5615;49.304;10.576;2022-09-09T05:17:24;12.30;99.90
11122;DHT22;5615;49.304;10.576;2022-09-09T05:19:52;12.20;99.90
11122;DHT22;5615;49.304;10.576;2022-09-09T05:22:19;12.20;99.90
11122;DHT22;5615;49.304;10.576;2022-09-09T05:24:46;12.20;99.90
11122;DHT22;5615;49.304;10.576;2022-09-09T05:27:16;12.20;99.90
11122;DHT22;5615;49.304;10.576;2022-09-09T05:29:43;12.20;99.90
11122;DHT22;5615;49.304;10.576;2022-09-09T05:32:10;12.10;99.90
11122;DHT22;5615;49.304;10.576;2022-09-09T05:34:36;12.10;99.90
11122;DHT22;5615;49.304;10.576;2022-09-09T05:37:06;12.20;99.90
11122;DHT22;5615;49.304;10.576;2022-09-09T05:39:33;12.30;99.90
11122;DHT22;5615;49.304;10.576;2022-09-09T05:42:01;12.30;99.90
11122;DHT22;5615;49.304;10.576;2022-09-09T05:44:28;12.20;99.90
11122;DHT22;5615;49.304;10.576;2022-09-09T05:46:54;12.30;99.90
11122;DHT22;5615;49.304;10.576;2022-09-09T05:49:21;12.30;99.90
11122;DHT22;5615;49.304;10.576;2022-09-09T05:51:48;12.30;99.90
11122;DHT22;5615;49.304;10.576;2022-09-09T05:54:17;12.50;99.90
11122;DHT22;5615;49.304;10.576;2022-09-09T05:56:43;12.70;99.90
11122;DHT22;5615;49.304;10.576;2022-09-09T05:59:10;12.80;99.90
11122;DHT22;5615;49.304;10.576;2022-09-09T06:01:38;12.90;99.90
11122;DHT22;5615;49.304;10.576;2022-09-09T06:04:06;13.00;99.90
11122;DHT22;5615;49.304;10.576;2022-09-09T06:06:34;13.10;99.90
11122;DHT22;5615;49.304;10.576;2022-09-09T06:09:03;13.20;99.90
11122;DHT22;5615;49.304;10.576;2022-09-09T06:11:33;13.40;99.90
11122;DHT22;5615;49.304;10.576;2022-09-09T06:14:02;13.50;99.90
11122;DHT22;5615;49.304;10.576;2022-09-09T06:16:29;13.60;99.90
11122;DHT22;5615;49.304;10.576;2022-09-09T06:18:58;13.70;99.90
11122;DHT22;5615;49.304;10.576;2022-09-09T06:21:26;13.80;99.90
11122;DHT22;5615;49.304;10.576;2022-09-09T06:23:54;13.90;99.90
11122;DHT22;5615;49.304;10.576;2022-09-09T06:26:22;14.10;99.90
11122;DHT22;5615;49.304;10.576;2022-09-09T06:28:53;14.30;99.90
11122;DHT22;5615;49.304;10.576;2022-09-09T06:31:21;14.50;99.90
11122;DHT22;5615;49.304;10.576;2022-09-09T06:33:49;14.70;99.90
11122;DHT22;5615;49.304;10.576;2022-09-09T06:36:18;14.80;99.90
11122;DHT22;5615;49.304;10.576;2022-09-09T06:38:45;14.90;99.90
11122;DHT22;5615;49.304;10.576;2022-09-09T06:41:14;15.00;99.90
11122;DHT22;5615;49.304;10.576;2022-09-09T06:43:41;15.10;99.90
11122;DHT22;5615;49.304;10.576;2022-09-09T06:46:11;15.20;99.90
11122;DHT22;5615;49.304;10.576;2022-09-09T06:48:39;15.30;99.90
11122;DHT22;5615;49.304;10.576;2022-09-09T06:51:08;15.50;99.90
11122;DHT22;5615;49.304;10.576;2022-09-09T06:53:37;15.70;99.90
11122;DHT22;5615;49.304;10.576;2022-09-09T06:56:19;15.90;99.90
11122;DHT22;5615;49.304;10.576;2022-09-09T06:58:47;15.90;99.90
11122;DHT22;5615;49.304;10.576;2022-09-09T07:01:17;16.00;99.90
11122;DHT22;5615;49.304;10.576;2022-09-09T07:03:46;16.10;99.90
11122;DHT22;5615;49.304;10.576;2022-09-09T07:06:14;16.20;99.90
11122;DHT22;5615;49.304;10.576;2022-09-09T07:08:42;16.30;99.90
11122;DHT22;5615;49.304;10.576;2022-09-09T07:11:09;16.40;99.90
11122;DHT22;5615;49.304;10.576;2022-09-09T07:13:36;16.60;99.90
11122;DHT22;5615;49.304;10.576;2022-09-09T07:16:04;16.70;99.90
11122;DHT22;5615;49.304;10.576;2022-09-09T07:18:32;16.70;99.90
11122;DHT22;5615;49.304;10.576;2022-09-09T07:21:00;16.80;99.90
11122;DHT22;5615;49.304;10.576;2022-09-09T07:23:27;17.00;99.90
11122;DHT22;5615;49.304;10.576;2022-09-09T07:25:54;17.10;99.90
11122;DHT22;5615;49.304;10.576;2022-09-09T07:28:22;17.20;99.90
11122;DHT22;5615;49.304;10.576;2022-09-09T07:30:56;17.30;99.90
11122;DHT22;5615;49.304;10.576;2022-09-09T07:33:23;17.30;99.90
11122;DHT22;5615;49.304;10.576;2022-09-09T07:35:52;17.50;99.90
11122;DHT22;5615;49.304;10.576;2022-09-09T07:38:19;17.50;99.90
11122;DHT22;5615;49.304;10.576;2022-09-09T07:40:46;17.60;99.90
11122;DHT22;5615;49.304;10.576;2022-09-09T07:43:13;17.70;99.90
11122;DHT22;5615;49.304;10.576;2022-09-09T07:45:44;17.80;99.90
11122;DHT22;5615;49.304;10.576;2022-09-09T07:48:10;18.10;99.90
11122;DHT22;5615;49.304;10.576;2022-09-09T07:50:37;18.20;99.90
11122;DHT22;5615;49.304;10.576;2022-09-09T07:53:06;18.20;99.90
11122;DHT22;5615;49.304;10.576;2022-09-09T07:55:32;18.30;99.90
11122;DHT22;5615;49.304;10.576;2022-09-09T07:57:59;18.40;99.90
11122;DHT22;5615;49.304;10.576;2022-09-09T08:00:26;18.60;99.90
11122;DHT22;5615;49.304;10.576;2022-09-09T08:02:53;18.70;99.90
11122;DHT22;5615;49.304;10.576;2022-09-09T08:05:20;18.60;99.90
11122;DHT22;5615;49.304;10.576;2022-09-09T08:07:47;18.70;99.90
11122;DHT22;5615;49.304;10.576;2022-09-09T08:10:15;18.60;99.90
11122;DHT22;5615;49.304;10.576;2022-09-09T08:12:43;18.50;99.90
11122;DHT22;5615;49.304;10.576;2022-09-09T08:15:10;18.60;99.90
11122;DHT22;5615;49.304;10.576;2022-09-09T08:17:37;18.70;99.90
11122;DHT22;5615;49.304;10.576;2022-09-09T08:20:05;18.90;99.90
11122;DHT22;5615;49.304;10.576;2022-09-09T08:22:32;18.80;99.90
11122;DHT22;5615;49.304;10.576;2022-09-09T08:24:59;18.80;99.90
11122;DHT22;5615;49.304;10.576;2022-09-09T08:27:28;18.90;99.90
11122;DHT22;5615;49.304;10.576;2022-09-09T08:29:55;19.10;99.90
11122;DHT22;5615;49.304;10.576;2022-09-09T08:32:22;19.20;99.90
11122;DHT22;5615;49.304;10.576;2022-09-09T08:34:48;19.40;99.90
11122;DHT22;5615;49.304;10.576;2022-09-09T08:37:16;19.40;99.90
11122;DHT22;5615;49.304;10.576;2022-09-09T08:39:43;19.40;99.90
11122;DHT22;5615;49.304;10.576;2022-09-09T08:42:33;19.60;99.90
11122;DHT22;5615;49.304;10.576;2022-09-09T08:45:14;19.50;99.90
11122;DHT22;5615;49.304;10.576;2022-09-09T08:47:51;19.90;99.90
11122;DHT22;5615;49.304;10.576;2022-09-09T08:50:24;20.10;99.90
11122;DHT22;5615;49.304;10.576;2022-09-09T08:52:56;20.30;99.90
11122;DHT22;5615;49.304;10.576;2022-09-09T08:55:41;20.30;99.90
11122;DHT22;5615;49.304;10.576;2022-09-09T08:58:15;20.20;99.90
11122;DHT22;5615;49.304;10.576;2022-09-09T09:00:57;20.20;99.90
11122;DHT22;5615;49.304;10.576;2022-09-09T09:03:34;20.70;99.90
11122;DHT22;5615;49.304;10.576;2022-09-09T09:06:09;20.20;99.90
11122;DHT22;5615;49.304;10.576;2022-09-09T09:08:43;20.40;99.90
11122;DHT22;5615;49.304;10.576;2022-09-09T09:11:10;20.40;99.90
11122;DHT22;5615;49.304;10.576;2022-09-09T09:13:43;20.50;99.90
11122;DHT22;5615;49.304;10.576;2022-09-09T09:16:17;21.10;99.90
11122;DHT22;5615;49.304;10.576;2022-09-09T09:18:46;21.50;99.90
11122;DHT22;5615;49.304;10.576;2022-09-09T09:21:15;21.70;99.90
11122;DHT22;5615;49.304;10.576;2022-09-09T09:23:49;21.50;99.90
11122;DHT22;5615;49.304;10.576;2022-09-09T09:26:18;21.10;99.90
11122;DHT22;5615;49.304;10.576;2022-09-09T09:28:46;21.30;99.90
11122;DHT22;5615;49.304;10.576;2022-09-09T09:31:13;21.20;99.90
11122;DHT22;5615;49.304;10.576;2022-09-09T09:33:46;21.50;99.90
11122;DHT22;5615;49.304;10.576;2022-09-09T09:36:14;21.70;99.90
11122;DHT22;5615;49.304;10.576;2022-09-09T09:38:52;21.40;99.90
11122;DHT22;5615;49.304;10.576;2022-09-09T09:41:29;21.90;99.90
11122;DHT22;5615;49.304;10.576;2022-09-09T09:43:57;22.60;99.90
11122;DHT22;5615;49.304;10.576;2022-09-09T09:46:24;22.60;99.90
11122;DHT22;5615;49.304;10.576;2022-09-09T09:48:59;22.20;99.90
11122;DHT22;5615;49.304;10.576;2022-09-09T09:51:27;22.00;99.90
11122;DHT22;5615;49.304;10.576;2022-09-09T09:54:08;21.60;99.90
11122;DHT22;5615;49.304;10.576;2022-09-09T09:56:36;21.30;99.90
11122;DHT22;5615;49.304;10.576;2022-09-09T09:59:04;20.90;99.90
11122;DHT22;5615;49.304;10.576;2022-09-09T10:01:32;20.80;99.90
11122;DHT22;5615;49.304;10.576;2022-09-09T10:04:01;20.90;99.90
11122;DHT22;5615;49.304;10.576;2022-09-09T10:06:32;20.90;99.90
11122;DHT22;5615;49.304;10.576;2022-09-09T10:08:59;20.60;99.90
11122;DHT22;5615;49.304;10.576;2022-09-09T10:11:37;20.70;99.90
11122;DHT22;5615;49.304;10.576;2022-09-09T10:14:17;21.20;99.90
11122;DHT22;5615;49.304;10.576;2022-09-09T10:16:56;22.10;99.90
11122;DHT22;5615;49.304;10.576;2022-09-09T10:19:29;22.90;99.90
11122;DHT22;5615;49.304;10.576;2022-09-09T10:22:04;24.30;99.90
11122;DHT22;5615;49.304;10.576;2022-09-09T10:24:58;24.70;99.90
11122;DHT22;5615;49.304;10.576;2022-09-09T10:27:32;24.60;99.90
11122;DHT22;5615;49.304;10.576;2022-09-09T10:30:12;24.50;99.70
11122;DHT22;5615;49.304;10.576;2022-09-09T10:32:46;23.70;99.90
11122;DHT22;5615;49.304;10.576;2022-09-09T10:35:25;22.60;99.90
11122;DHT22;5615;49.304;10.576;2022-09-09T10:38:08;22.20;99.90
11122;DHT22;5615;49.304;10.576;2022-09-09T10:40:41;22.60;99.90
11122;DHT22;5615;49.304;10.576;2022-09-09T10:43:20;22.20;99.90
11122;DHT22;5615;49.304;10.576;2022-09-09T10:46:00;21.80;99.90
11122;DHT22;5615;49.304;10.576;2022-09-09T10:48:40;21.50;99.90
11122;DHT22;5615;49.304;10.576;2022-09-09T10:51:23;21.30;99.90
11122;DHT22;5615;49.304;10.576;2022-09-09T10:54:06;22.60;99.90
11122;DHT22;5615;49.304;10.576;2022-09-09T10:56:38;23.70;99.90
11122;DHT22;5615;49.304;10.576;2022-09-09T10:59:10;23.70;99.90
11122;DHT22;5615;49.304;10.576;2022-09-09T11:01:43;23.60;99.90
11122;DHT22;5615;49.304;10.576;2022-09-09T11:04:15;22.60;99.90
11122;DHT22;5615;49.304;10.576;2022-09-09T11:06:48;22.20;99.90
11122;DHT22;5615;49.304;10.576;2022-09-09T11:09:19;21.50;99.90
11122;DHT22;5615;49.304;10.576;2022-09-09T11:11:51;21.40;99.90
11122;DHT22;5615;49.304;10.576;2022-09-09T11:14:22;21.60;99.90
11122;DHT22;5615;49.304;10.576;2022-09-09T11:16:58;21.80;99.90
11122;DHT22;5615;49.304;10.576;2022-09-09T11:19:29;23.20;99.90
11122;DHT22;5615;49.304;10.576;2022-09-09T11:21:59;23.00;99.60
11122;DHT22;5615;49.304;10.576;2022-09-09T11:24:29;23.00;99.80
11122;DHT22;5615;49.304;10.576;2022-09-09T11:27:01;23.30;99.50
11122;DHT22;5615;49.304;10.576;2022-09-09T11:29:52;24.20;98.30
11122;DHT22;5615;49.304;10.576;2022-09-09T11:32:40;24.80;95.40
11122;DHT22;5615;49.304;10.576;2022-09-09T11:35:25;25.50;93.30
11122;DHT22;5615;49.304;10.576;2022-09-09T11:38:11;27.50;84.50
11122;DHT22;5615;49.304;10.576;2022-09-09T11:40:40;26.90;80.50
11122;DHT22;5615;49.304;10.576;2022-09-09T11:43:11;27.50;79.60
11122;DHT22;5615;49.304;10.576;2022-09-09T11:45:40;26.50;79.00
11122;DHT22;5615;49.304;10.576;2022-09-09T11:48:23;26.50;81.60
11122;DHT22;5615;49.304;10.576;2022-09-09T11:50:57;29.10;76.60
11122;DHT22;5615;49.304;10.576;2022-09-09T11:53:25;27.50;71.60
11122;DHT22;5615;49.304;10.576;2022-09-09T11:56:10;26.90;72.00
11122;DHT22;5615;49.304;10.576;2022-09-09T11:58:43;25.80;70.30
11122;DHT22;5615;49.304;10.576;2022-09-09T12:01:15;25.00;76.90
11122;DHT22;5615;49.304;10.576;2022-09-09T12:03:45;24.60;79.30
11122;DHT22;5615;49.304;10.576;2022-09-09T12:06:16;23.80;85.30
11122;DHT22;5615;49.304;10.576;2022-09-09T12:08:48;23.00;89.90
11122;DHT22;5615;49.304;10.576;2022-09-09T12:11:25;22.20;90.00
11122;DHT22;5615;49.304;10.576;2022-09-09T12:13:53;20.20;99.90
11122;DHT22;5615;49.304;10.576;2022-09-09T12:16:30;15.50;99.90
11122;DHT22;5615;49.304;10.576;2022-09-09T12:19:06;14.10;99.90
11122;DHT22;5615;49.304;10.576;2022-09-09T12:21:36;14.00;99.90
11122;DHT22;5615;49.304;10.576;2022-09-09T12:24:08;14.80;99.90
11122;DHT22;5615;49.304;10.576;2022-09-09T12:26:38;15.10;99.90
11122;DHT22;5615;49.304;10.576;2022-09-09T12:29:15;16.00;99.90
11122;DHT22;5615;49.304;10.576;2022-09-09T12:31:50;16.70;99.90
11122;DHT22;5615;49.304;10.576;2022-09-09T12:34:29;17.60;99.90
11122;DHT22;5615;49.304;10.576;2022-09-09T12:37:03;19.80;99.90
11122;DHT22;5615;49.304;10.576;2022-09-09T12:39:34;20.20;99.90
11122;DHT22;5615;49.304;10.576;2022-09-09T12:42:02;20.50;99.90
11122;DHT22;5615;49.304;10.576;2022-09-09T12:44:29;20.80;99.90
11122;DHT22;5615;49.304;10.576;2022-09-09T12:47:01;19.60;99.90
11122;DHT22;5615;49.304;10.576;2022-09-09T12:49:32;20.20;99.90
11122;DHT22;5615;49.304;10.576;2022-09-09T12:52:03;21.40;99.90
11122;DHT22;5615;49.304;10.576;2022-09-09T12:54:31;21.60;99.90
11122;DHT22;5615;49.304;10.576;2022-09-09T12:56:58;21.50;99.90
11122;DHT22;5615;49.304;10.576;2022-09-09T12:59:27;21.30;99.90
11122;DHT22;5615;49.304;10.576;2022-09-09T13:02:00;22.20;99.90
11122;DHT22;5615;49.304;10.576;2022-09-09T13:04:27;21.20;99.90
11122;DHT22;5615;49.304;10.576;2022-09-09T13:07:05;20.80;99.90
11122;DHT22;5615;49.304;10.576;2022-09-09T13:09:32;21.00;99.90
11122;DHT22;5615;49.304;10.576;2022-09-09T13:11:59;20.90;99.90
11122;DHT22;5615;49.304;10.576;2022-09-09T13:14:29;20.60;99.90
11122;DHT22;5615;49.304;10.576;2022-09-09T13:16:59;20.10;99.90
11122;DHT22;5615;49.304;10.576;2022-09-09T13:19:28;18.50;99.90
11122;DHT22;5615;49.304;10.576;2022-09-09T13:21:58;18.10;99.90
11122;DHT22;5615;49.304;10.576;2022-09-09T13:24:29;17.40;99.90
11122;DHT22;5615;49.304;10.576;2022-09-09T13:26:57;17.40;99.90
11122;DHT22;5615;49.304;10.576;2022-09-09T13:29:23;17.30;99.90
11122;DHT22;5615;49.304;10.576;2022-09-09T13:31:51;17.20;99.90
11122;DHT22;5615;49.304;10.576;2022-09-09T13:34:27;16.70;99.90
11122;DHT22;5615;49.304;10.576;2022-09-09T13:36:58;16.50;99.90
11122;DHT22;5615;49.304;10.576;2022-09-09T13:39:26;16.40;99.90
11122;DHT22;5615;49.304;10.576;2022-09-09T13:41:53;16.40;99.90
11122;DHT22;5615;49.304;10.576;2022-09-09T13:44:22;16.40;99.90
11122;DHT22;5615;49.304;10.576;2022-09-09T13:47:01;16.40;99.90
11122;DHT22;5615;49.304;10.576;2022-09-09T13:49:29;16.20;99.90
11122;DHT22;5615;49.304;10.576;2022-09-09T13:52:10;16.00;99.90
11122;DHT22;5615;49.304;10.576;2022-09-09T13:54:38;16.00;99.90
11122;DHT22;5615;49.304;10.576;2022-09-09T13:57:05;16.00;99.90
11122;DHT22;5615;49.304;10.576;2022-09-09T13:59:32;16.00;99.90
11122;DHT22;5615;49.304;10.576;2022-09-09T14:01:59;16.20;99.90
11122;DHT22;5615;49.304;10.576;2022-09-09T14:04:27;16.20;99.90
11122;DHT22;5615;49.304;10.576;2022-09-09T14:06:54;16.00;99.90
11122;DHT22;5615;49.304;10.576;2022-09-09T14:09:23;15.80;99.90
11122;DHT22;5615;49.304;10.576;2022-09-09T14:11:49;15.70;99.90
11122;DHT22;5615;49.304;10.576;2022-09-09T14:14:16;15.60;99.90
11122;DHT22;5615;49.304;10.576;2022-09-09T14:16:43;15.30;99.90
11122;DHT22;5615;49.304;10.576;2022-09-09T14:19:09;15.20;99.90
11122;DHT22;5615;49.304;10.576;2022-09-09T14:21:36;14.80;99.90
11122;DHT22;5615;49.304;10.576;2022-09-09T14:24:03;14.90;99.90
11122;DHT22;5615;49.304;10.576;2022-09-09T14:26:31;14.90;99.90
11122;DHT22;5615;49.304;10.576;2022-09-09T14:28:58;15.20;99.90
11122;DHT22;5615;49.304;10.576;2022-09-09T14:31:25;15.60;99.90
11122;DHT22;5615;49.304;10.576;2022-09-09T14:33:52;16.20;99.90
11122;DHT22;5615;49.304;10.576;2022-09-09T14:36:19;19.50;99.90
11122;DHT22;5615;49.304;10.576;2022-09-09T14:38:46;20.10;99.90
11122;DHT22;5615;49.304;10.576;2022-09-09T14:41:15;18.30;99.90
11122;DHT22;5615;49.304;10.576;2022-09-09T14:43:45;17.80;99.90
11122;DHT22;5615;49.304;10.576;2022-09-09T14:46:13;19.70;99.90
11122;DHT22;5615;49.304;10.576;2022-09-09T14:48:40;23.20;99.90
11122;DHT22;5615;49.304;10.576;2022-09-09T14:51:09;25.80;99.90
11122;DHT22;5615;49.304;10.576;2022-09-09T14:53:38;27.20;99.90
11122;DHT22;5615;49.304;10.576;2022-09-09T14:56:06;27.90;99.90
11122;DHT22;5615;49.304;10.576;2022-09-09T14:58:34;26.50;99.90
11122;DHT22;5615;49.304;10.576;2022-09-09T15:01:07;28.10;99.90
11122;DHT22;5615;49.304;10.576;2022-09-09T15:03:35;29.00;99.90
11122;DHT22;5615;49.304;10.576;2022-09-09T15:06:06;30.30;99.90
11122;DHT22;5615;49.304;10.576;2022-09-09T15:08:34;30.80;99.90
11122;DHT22;5615;49.304;10.576;2022-09-09T15:11:00;29.90;99.90
11122;DHT22;5615;49.304;10.576;2022-09-09T15:13:27;31.10;99.90
11122;DHT22;5615;49.304;10.576;2022-09-09T15:15:54;30.90;99.90
11122;DHT22;5615;49.304;10.576;2022-09-09T15:18:22;29.70;97.30
11122;DHT22;5615;49.304;10.576;2022-09-09T15:20:48;27.20;99.90
11122;DHT22;5615;49.304;10.576;2022-09-09T15:23:15;24.20;99.90
11122;DHT22;5615;49.304;10.576;2022-09-09T15:25:51;22.60;99.90
11122;DHT22;5615;49.304;10.576;2022-09-09T15:28:18;22.00;99.90
11122;DHT22;5615;49.304;10.576;2022-09-09T15:30:47;22.30;99.90
11122;DHT22;5615;49.304;10.576;2022-09-09T15:33:14;22.50;99.90
11122;DHT22;5615;49.304;10.576;2022-09-09T15:35:42;21.80;99.90
11122;DHT22;5615;49.304;10.576;2022-09-09T15:38:09;21.60;99.90
11122;DHT22;5615;49.304;10.576;2022-09-09T15:40:38;23.70;99.90
11122;DHT22;5615;49.304;10.576;2022-09-09T15:43:05;27.10;99.90
11122;DHT22;5615;49.304;10.576;2022-09-09T15:45:32;28.70;92.30
11122;DHT22;5615;49.304;10.576;2022-09-09T15:47:59;30.80;78.00
11122;DHT22;5615;49.304;10.576;2022-09-09T15:50:25;29.10;71.40
11122;DHT22;5615;49.304;10.576;2022-09-09T15:52:53;28.50;69.50